createdAt,value
2018-01-12T00:05:43.394Z,25.50
2018-01-12T00:11:46.873Z,25.00
2018-01-12T00:17:50.358Z,24.50
2018-01-12T00:23:54.633Z,23.13
2018-01-12T00:29:59.010Z,25.20
2018-01-12T00:36:03.270Z,24.37
2018-01-12T00:42:07.472Z,24.10
2018-01-12T00:48:10.925Z,20.67
2018-01-12T00:54:14.405Z,24.30
2018-01-12T01:00:17.894Z,22.63
2018-01-12T01:06:22.196Z,25.97
2018-01-12T01:12:25.708Z,25.30
2018-01-12T01:18:31.065Z,27.20
2018-01-12T01:24:34.542Z,22.80
2018-01-12T01:30:38.136Z,25.90
2018-01-12T01:36:41.637Z,23.27
2018-01-12T01:42:45.089Z,24.63
2018-01-12T01:48:48.550Z,32.53
2018-01-12T01:54:51.997Z,30.37
2018-01-12T02:00:55.899Z,32.60
2018-01-12T02:06:59.400Z,36.47
2018-01-12T02:13:02.865Z,31.57
2018-01-12T02:19:07.247Z,34.97
2018-01-12T02:25:10.754Z,28.50
2018-01-12T02:31:14.202Z,31.07
2018-01-12T02:37:18.455Z,28.80
2018-01-12T02:43:23.785Z,25.87
2018-01-12T02:49:27.299Z,25.60
2018-01-12T02:55:30.750Z,26.70
2018-01-12T03:01:34.375Z,27.33
2018-01-12T03:07:37.839Z,24.60
2018-01-12T03:13:41.314Z,27.27
2018-01-12T03:19:44.786Z,26.00
2018-01-12T03:25:49.023Z,26.43
2018-01-12T03:31:52.525Z,24.90
2018-01-12T03:37:56.019Z,25.27
2018-01-12T03:43:59.501Z,23.97
2018-01-12T03:50:02.993Z,27.00
2018-01-12T03:56:06.636Z,28.27
2018-01-12T04:02:10.862Z,27.73
2018-01-12T04:08:14.594Z,30.57
2018-01-12T04:14:18.981Z,30.30
2018-01-12T04:20:22.447Z,38.07
2018-01-12T04:26:25.907Z,29.50
2018-01-12T04:32:29.599Z,44.67
2018-01-12T04:38:33.839Z,32.40
2018-01-12T04:44:37.653Z,32.07
2018-01-12T04:50:41.129Z,46.27
2018-01-12T04:56:44.647Z,42.20
2018-01-12T05:02:48.958Z,41.00
2018-01-12T05:08:52.453Z,29.23
2018-01-12T05:14:56.068Z,32.60
2018-01-12T05:20:59.757Z,33.37
2018-01-12T05:27:04.561Z,36.40
2018-01-12T05:33:08.861Z,32.47
2018-01-12T05:39:13.103Z,36.67
2018-01-12T05:45:17.365Z,32.27
2018-01-12T05:51:21.652Z,38.30
2018-01-12T05:57:26.893Z,30.07
2018-01-12T06:03:48.263Z,30.53
2018-01-12T06:09:51.818Z,35.50
2018-01-12T06:15:55.291Z,34.87
2018-01-12T06:21:58.856Z,34.67
2018-01-12T06:28:02.305Z,31.13
2018-01-12T06:34:05.774Z,28.33
2018-01-12T06:40:09.250Z,28.60
2018-01-12T06:46:13.491Z,26.77
2018-01-12T06:52:16.965Z,25.40
2018-01-12T06:58:20.572Z,26.53
2018-01-12T07:04:24.161Z,28.27
2018-01-12T07:10:28.319Z,26.37
2018-01-12T07:16:31.797Z,25.93
2018-01-12T07:29:17.829Z,24.13
2018-01-12T07:35:21.343Z,23.77
2018-01-12T07:41:24.956Z,21.57
2018-01-12T07:47:28.679Z,24.80
2018-01-12T07:53:32.962Z,25.77
2018-01-12T07:59:36.451Z,26.00
2018-01-12T08:05:39.931Z,22.67
2018-01-12T08:11:43.531Z,22.27
2018-01-12T08:17:47.018Z,21.43
2018-01-12T08:23:50.515Z,22.33
2018-01-12T08:29:54.278Z,25.50
2018-01-12T08:35:58.105Z,56.60
2018-01-12T08:42:01.607Z,30.87
2018-01-12T08:48:05.918Z,30.17
2018-01-12T08:54:09.407Z,26.23
2018-01-12T09:00:12.888Z,25.80
2018-01-12T09:06:17.135Z,29.10
2018-01-12T09:12:21.385Z,28.17
2018-01-12T09:18:32.022Z,26.17
2018-01-12T09:24:35.531Z,28.10
2018-01-12T09:30:39.147Z,23.40
2018-01-12T09:36:42.743Z,26.63
2018-01-12T09:42:46.295Z,24.90
2018-01-12T09:48:52.213Z,25.67
2018-01-12T09:54:55.861Z,25.73
2018-01-12T10:01:05.477Z,23.20
2018-01-12T10:07:19.629Z,21.67
2018-01-12T10:13:23.201Z,25.50
2018-01-12T10:19:26.703Z,25.37
2018-01-12T10:25:30.297Z,26.30
2018-01-12T10:31:51.805Z,27.33
2018-01-12T10:37:55.842Z,25.80
2018-01-12T10:43:59.565Z,25.37
2018-01-12T10:50:29.590Z,25.23
2018-01-12T10:56:33.850Z,25.83
2018-01-12T11:02:38.153Z,20.37
2018-01-12T11:08:41.727Z,21.70
2018-01-12T11:14:45.242Z,19.20
2018-01-12T11:20:49.493Z,21.50
2018-01-12T11:26:53.137Z,20.20
2018-01-12T11:32:56.753Z,21.90
2018-01-12T11:39:00.286Z,23.43
2018-01-12T11:45:04.513Z,23.00
2018-01-12T11:51:08.005Z,23.53
2018-01-12T11:57:12.274Z,22.50
2018-01-12T12:03:16.519Z,23.50
2018-01-12T12:09:19.985Z,25.10
2018-01-12T12:15:23.476Z,25.17
2018-01-12T12:21:27.218Z,24.20
2018-01-12T12:27:30.746Z,25.00
2018-01-12T12:33:34.222Z,24.40
2018-01-12T12:39:38.496Z,25.23
2018-01-12T12:45:42.105Z,26.87
2018-01-12T12:51:45.614Z,28.60
2018-01-12T12:57:49.118Z,30.57
2018-01-12T13:03:52.631Z,26.87
2018-01-12T13:09:56.370Z,28.23
2018-01-12T13:16:01.442Z,26.73
2018-01-12T13:22:04.954Z,26.00
2018-01-12T13:28:08.711Z,25.30
2018-01-12T13:34:12.161Z,25.43
2018-01-12T13:40:16.426Z,27.23
2018-01-12T13:46:19.915Z,26.00
2018-01-12T13:52:23.389Z,23.90
2018-01-12T13:58:27.327Z,23.77
2018-01-12T14:04:30.862Z,25.13
2018-01-12T14:10:34.367Z,26.80
2018-01-12T14:16:37.951Z,26.90
2018-01-12T14:22:42.213Z,28.23
2018-01-12T14:28:46.610Z,27.70
2018-01-12T14:34:50.212Z,34.47
2018-01-12T14:40:53.694Z,35.03
2018-01-12T14:46:58.099Z,35.07
2018-01-12T14:53:01.588Z,43.50
2018-01-12T14:59:05.169Z,32.83
2018-01-12T15:05:08.677Z,35.20
2018-01-12T15:11:12.312Z,33.47
2018-01-12T15:17:15.783Z,35.37
2018-01-12T15:23:19.277Z,34.30
2018-01-12T15:29:22.853Z,33.97
2018-01-12T15:35:26.524Z,33.50
2018-01-12T15:41:30.809Z,32.40
2018-01-12T15:47:34.300Z,29.30
2018-01-12T15:53:37.792Z,29.90
2018-01-12T15:59:41.421Z,37.30
2018-01-12T16:05:44.885Z,27.87
2018-01-12T16:11:48.346Z,28.87
2018-01-12T16:17:51.840Z,28.40
2018-01-12T16:23:55.360Z,28.00
2018-01-12T16:29:58.857Z,26.27
2018-01-12T16:36:02.623Z,27.67
2018-01-12T16:42:06.137Z,26.37
2018-01-12T16:48:10.529Z,24.43
2018-01-12T16:54:14.107Z,26.40
2018-01-12T17:00:17.596Z,27.00
2018-01-12T17:06:21.220Z,29.10
2018-01-12T17:12:24.942Z,29.90
2018-01-12T17:18:28.566Z,38.83
2018-01-12T17:24:32.832Z,35.47
2018-01-12T17:30:36.323Z,31.60
2018-01-12T17:36:40.591Z,29.13
2018-01-12T17:42:44.866Z,28.60
2018-01-12T17:48:49.130Z,27.80
2018-01-12T17:54:53.437Z,29.63
2018-01-12T18:00:56.927Z,29.13
2018-01-12T18:07:00.431Z,28.17
2018-01-12T18:13:03.904Z,28.37
2018-01-12T18:19:07.390Z,28.10
2018-01-12T18:25:11.182Z,28.70
2018-01-12T18:31:15.447Z,30.30
2018-01-12T18:37:18.939Z,41.10
2018-01-12T18:43:22.424Z,43.97
2018-01-12T18:49:26.019Z,34.93
2018-01-12T18:55:29.738Z,37.80
2018-01-12T19:01:34.085Z,35.90
2018-01-12T19:07:37.585Z,32.33
2018-01-12T19:13:41.139Z,26.10
2018-01-12T19:19:44.619Z,25.60
2018-01-12T19:25:48.859Z,28.57
2018-01-12T19:31:52.398Z,28.53
2018-01-12T19:37:56.093Z,30.73
2018-01-12T19:43:59.637Z,31.40
2018-01-12T19:50:03.456Z,30.90
2018-01-12T19:56:06.992Z,31.90
2018-01-12T20:02:10.450Z,29.40
2018-01-12T20:08:13.998Z,31.60
2018-01-12T20:14:17.506Z,29.60
2018-01-12T20:20:21.005Z,29.97
2018-01-12T20:26:24.923Z,29.90
2018-01-12T20:32:28.534Z,28.40
2018-01-12T20:38:32.007Z,28.50
2018-01-12T20:44:35.486Z,30.90
2018-01-12T20:50:38.990Z,24.30
2018-01-12T20:56:42.478Z,24.20
2018-01-12T21:02:45.958Z,23.93
2018-01-12T21:08:49.429Z,22.43
2018-01-12T21:14:53.740Z,24.30
2018-01-12T21:20:58.158Z,22.07
2018-01-12T21:27:01.741Z,21.20
2018-01-12T21:33:06.012Z,22.13
2018-01-12T21:39:10.286Z,18.80
2018-01-12T21:45:14.558Z,18.73
2018-01-12T21:51:18.832Z,20.37
2018-01-12T21:57:23.059Z,18.77
2018-01-12T22:03:27.225Z,18.70
2018-01-12T22:09:30.736Z,20.20
2018-01-12T22:15:34.225Z,19.00
2018-01-12T22:21:37.706Z,19.43
2018-01-12T22:27:41.301Z,18.43
2018-01-12T22:33:44.993Z,20.50
2018-01-12T22:39:48.479Z,19.47
2018-01-12T22:45:52.745Z,20.20
2018-01-12T22:51:56.404Z,18.87
2018-01-12T22:57:59.996Z,19.03
2018-01-12T23:04:03.459Z,19.43
2018-01-12T23:10:06.935Z,20.57
2018-01-12T23:16:11.331Z,19.50
2018-01-12T23:22:14.834Z,18.10
2018-01-12T23:28:18.396Z,20.17
2018-01-12T23:34:21.888Z,18.80
2018-01-12T23:40:26.153Z,20.27
2018-01-12T23:46:29.652Z,29.70
2018-01-12T23:52:33.922Z,28.67
2018-01-12T23:58:38.139Z,20.10
